Chesterfield, Connecticut
Current Conditions -  °F | °C
As of 12:56 AM on Saturday 20 Dec 2014 (Local Time) from KGON Reporting Station
Broken Clouds Broken Clouds  
Wind Chill: 23°   Ceiling: 3000
Heat Index: 29°   Visibility: 8mi
Dew Point: 21°   Wind: 6mph
Humidity: 72%   Direction: 320°NW
Pressure: 30.17"   Gusts: NA
Location:  41.4669°N, 72.1896°W
Report Text: KGON 200556Z AUTO 32005KT 8SM BKN030 M02/M06 A3017 RMK AO2 SLP216 T10171061 10006 21017 51017
Loading
Personal Weather Stations






























Interactive Weather Map New forecast layout! Learn more

10-Day Weather Forecast

Advertisements
Track Severe Weather on mobile